Flight Track Log - Related Links

Times and Time Zones

All times are in EDT time to prevent confusion due to time zone crossing. See the KAL251 flight status page for this flight to view local times or setup timezone preferences in your user account.

Time Position Orientation Groundspeed Altitude Reporting Facility
EDT Latitude Longitude Course Direction KTS MPH feet Rate Location/Type
Sun 05:55:24 AM 40.5644 -73.8708 130° Southeast 287 330 6,100  Level FlightAware
Sun 05:55:27 AM 40.5618 -73.8667 127° Southeast 288 331 6,300 3,000 Climbing FlightAware
Sun 05:55:32 AM 40.5584 -73.8607 114° Southeast 292 336 6,500 2,400 Climbing FlightAware
Sun 05:55:37 AM 40.5557 -73.8528 111° Southeast 293 337 6,700 3,000 Climbing FlightAware
Sun 05:55:40 AM 40.5542 -73.8477 102° East 294 338 6,900 2,571 Climbing FlightAware
Sun 05:55:44 AM 40.5531 -73.8408 97° East 294 338 7,000 2,571 Climbing FlightAware
Sun 05:55:47 AM 40.5526 -73.8354 92° East 296 341 7,200 3,000 Climbing FlightAware
Sun 05:55:52 AM 40.5524 -73.8265 83° East 295 339 7,400 3,333 Climbing FlightAware
Sun 05:55:56 AM 40.5531 -73.8193 77° East 295 339 7,700 3,429 Climbing FlightAware
Sun 05:55:59 AM 40.5540 -73.8141 71° East 294 338 7,800 2,400 Climbing FlightAware
Sun 05:56:06 AM 40.5571 -73.8023 59° Northeast 293 337 8,100 3,000 Climbing FlightAware
Sun 05:56:11 AM 40.5606 -73.7946 53° Northeast 288 331 8,400 3,000 Climbing FlightAware
Sun 05:56:14 AM 40.5630 -73.7904 47° Northeast 287 330 8,500 3,158 Climbing FlightAware
Sun 05:56:30 AM 40.5772 -73.7701 46° Northeast 286 329 9,400 2,681 Climbing FlightAware
Sun 05:57:01 AM 40.6070 -73.7301 45° Northeast 312 359 10,600 1,548 Climbing FlightAware
Sun 05:57:32 AM 40.6422 -73.6839 41° Northeast 363 418 11,000 1,556 Climbing FlightAware
Sun 05:57:55 AM 40.6723 -73.6495 34° Northeast 379 436 12,000 2,778 Climbing FlightAware
Sun 05:58:26 AM 40.7178 -73.6096 28° Northeast 384 442 13,500 3,238 Climbing FlightAware
Sun 05:58:58 AM 40.7679 -73.5746 28° Northeast 383 441 15,400 2,952 Climbing FlightAware
Sun 05:59:29 AM 40.8156 -73.5411 28° Northeast 376 433 16,600 1,355 Climbing FlightAware
Sun 06:00:00 AM 40.8643 -73.5070 28° Northeast 390 449 16,800 200 Climbing FlightAware
Sun 06:00:29 AM 40.9105 -73.4745 26° Northeast 388 447 16,800 200 Level FlightAware
Sun 06:00:30 AM 40.9122 -73.4734 29° Northeast 388 447 16,900 2,323 Climbing FlightAware
Sun 06:01:00 AM 40.9610 -73.4382 28° Northeast 393 452 18,000 2,361 Climbing FlightAware
Sun 06:01:31 AM 41.0109 -73.4035 28° Northeast 402 463 19,300 2,516 Climbing FlightAware
Sun 06:02:02 AM 41.0623 -73.3668 28° Northeast 411 473 20,600 2,419 Climbing FlightAware
Sun 06:02:33 AM 41.1152 -73.3293 29° Northeast 421 484 21,800 2,323 Climbing FlightAware
Sun 06:03:04 AM 41.1683 -73.2909 28° Northeast 430 495 23,000 2,215 Climbing FlightAware
Sun 06:03:38 AM 41.2300 -73.2465 28° Northeast 440 506 24,200 2,123 Climbing FlightAware
Sun 06:04:09 AM 41.2859 -73.2063 28° Northeast 447 514 25,300 2,164 Climbing FlightAware
Sun 06:04:39 AM 41.3411 -73.1666 30° Northeast 455 524 26,400 2,154 Climbing FlightAware
Sun 06:04:48 AM 41.3568 -73.1547 37° Northeast 467 537 26,700 1,765 Climbing FlightAware
Sun 06:04:56 AM 41.3707 -73.1406 45° Northeast 480 552 26,900 1,875 Climbing FlightAware
Sun 06:05:04 AM 41.3832 -73.1242 50° Northeast 492 566 27,200 2,118 Climbing FlightAware
Sun 06:05:13 AM 41.3965 -73.1032 52° Northeast 504 580 27,500 2,000 Climbing FlightAware
Sun 06:05:19 AM 41.4054 -73.0880 59° Northeast 516 594 27,700 1,946 Climbing FlightAware
Sun 06:05:50 AM 41.4436 -73.0026 60° Northeast 527 606 28,700 1,810 Climbing FlightAware
Sun 06:06:22 AM 41.4834 -72.9119 61° Northeast 536 617 29,600 1,619 Climbing FlightAware
Sun 06:06:53 AM 41.5206 -72.8215 63° Northeast 548 631 30,400 1,238 Climbing FlightAware
Sun 06:07:25 AM 41.5573 -72.7234 63° Northeast 563 648 30,900 1,065 Climbing FlightAware
Sun 06:07:55 AM 41.5935 -72.6297 63° Northeast 572 658 31,500 1,233 Climbing FlightAware
Sun 06:08:38 AM 41.6356 -72.5206 63° Northeast 542 624 32,400 2,087 Climbing Boston Center
Sun 06:10:36 AM 41.7784 -72.1440 63° Northeast 517 595 37,100 1,533 Climbing FlightAware
Sun 06:11:38 AM 41.8389 -71.9858 63° Northeast 532 612 37,000 -49 Descending Boston Center
Sun 06:12:38 AM 41.9067 -71.8097 63° Northeast 532 612 37,000  Level Boston Center
Sun 06:13:38 AM 41.9744 -71.6303 63° Northeast 532 612 37,000  Level Boston Center
Sun 06:14:38 AM 42.0397 -71.4561 63° Northeast 526 605 37,000  Level Boston Center
Sun 06:15:38 AM 42.1069 -71.2761 64° Northeast 526 605 37,000  Level Boston Center
Sun 06:16:38 AM 42.1756 -71.0897 64° Northeast 531 611 37,000  Level Boston Center
Sun 06:17:38 AM 42.2442 -70.9033 64° Northeast 537 618 37,000  Level Boston Center
Sun 06:18:38 AM 42.3142 -70.7106 64° Northeast 549 632 37,000  Level Boston Center
Sun 06:19:38 AM 42.3822 -70.5231 63° Northeast 554 638 37,000  Level Boston Center
Sun 06:20:38 AM 42.4539 -70.3353 60° Northeast 554 638 37,000  Level Boston Center
Sun 06:21:38 AM 42.5317 -70.1522 57° Northeast 554 638 37,000  Level Boston Center
Sun 06:22:38 AM 42.6153 -69.9742 57° Northeast 554 638 37,000  Level Boston Center
Sun 06:23:38 AM 42.7011 -69.7956 60° Northeast 554 638 37,000  Level Boston Center
Sun 06:24:38 AM 42.7758 -69.6169 60° Northeast 554 638 37,000  Level Boston Center
Sun 06:25:38 AM 42.8544 -69.4292 59° Northeast 554 638 37,000  Level Boston Center
Sun 06:26:38 AM 42.9331 -69.2494 59° Northeast 549 632 37,000  Level Boston Center
Sun 06:27:38 AM 43.0111 -69.0694 59° Northeast 549 632 37,000  Level Boston Center
Sun 06:28:38 AM 43.0911 -68.8886 57° Northeast 549 632 37,000  Level Boston Center
Sun 06:29:14 AM 43.1333 -68.8000 67° East 550 633 37,000  Level Moncton Center
Sun 06:30:14 AM 43.2000 -68.5833 55° Northeast 550 633 37,000  Level Moncton Center
Sun 06:31:14 AM 43.2833 -68.4167 63° Northeast 550 633 37,000  Level Moncton Center
Sun 06:32:14 AM 43.3500 -68.2333 63° Northeast 550 633 37,000  Level Moncton Center
Sun 06:33:14 AM 43.4167 -68.0500 50° Northeast 550 633 37,000  Level Moncton Center
Sun 06:34:14 AM 43.5167 -67.8833 63° Northeast 550 633 37,000  Level Moncton Center
Sun 06:35:14 AM 43.5833 -67.7000 60° Northeast 550 633 37,000  Level Moncton Center
Sun 06:36:14 AM 43.6667 -67.5000 58° Northeast 550 633 37,000  Level Moncton Center
Sun 06:37:14 AM 43.7500 -67.3167 63° Northeast 550 633 37,000  Level Moncton Center
Sun 06:38:14 AM 43.8167 -67.1333 65° Northeast 550 633 37,000  Level Moncton Center
Sun 06:39:14 AM 43.8833 -66.9333 58° Northeast 550 633 37,000  Level Moncton Center
Sun 06:40:14 AM 43.9667 -66.7500 58° Northeast 550 633 37,000  Level Moncton Center
Sun 06:41:14 AM 44.0500 -66.5667 63° Northeast 540 621 37,000  Level Moncton Center
Sun 06:42:14 AM 44.1167 -66.3833 61° Northeast 540 621 37,000  Level Moncton Center
Sun 06:43:14 AM 44.1833 -66.2167 62° Northeast 540 621 37,000  Level Moncton Center
Sun 06:44:14 AM 44.2667 -66.0000 58° Northeast 540 621 37,000  Level Moncton Center
Sun 06:45:14 AM 44.3333 -65.8500 67° East 540 621 37,000  Level Moncton Center
Sun 06:46:14 AM 44.4000 -65.6333 61° Northeast 540 621 37,000  Level Moncton Center
Sun 06:47:14 AM 44.4667 -65.4667 60° Northeast 540 621 37,000  Level Moncton Center
Sun 06:48:14 AM 44.5500 -65.2667 61° Northeast 540 621 37,000  Level Moncton Center
Sun 06:49:14 AM 44.6167 -65.1000 63° Northeast 530 610 37,000  Level Moncton Center
Sun 06:50:14 AM 44.6833 -64.9167 63° Northeast 530 610 37,000  Level Moncton Center
Sun 06:51:14 AM 44.7500 -64.7333 65° Northeast 540 621 37,000  Level Moncton Center
Sun 06:52:14 AM 44.8167 -64.5333 63° Northeast 540 621 37,000  Level Moncton Center
Sun 06:53:14 AM 44.8833 -64.3500 63° Northeast 540 621 37,000  Level Moncton Center
Sun 06:54:14 AM 44.9500 -64.1667 65° Northeast 540 621 37,000  Level Moncton Center
Sun 06:55:14 AM 45.0167 -63.9667 63° Northeast 540 621 37,000  Level Moncton Center
Sun 06:56:14 AM 45.0833 -63.7833 65° Northeast 540 621 37,000  Level Moncton Center
Sun 06:57:14 AM 45.1500 -63.5833 57° Northeast 540 621 37,000  Level Moncton Center
Sun 06:58:14 AM 45.2333 -63.4000 65° Northeast 540 621 37,000  Level Moncton Center
Sun 06:59:14 AM 45.3000 -63.2000 63° Northeast 540 621 37,000  Level Moncton Center
Sun 07:00:14 AM 45.3667 -63.0167 65° Northeast 550 633 37,000  Level Moncton Center
Sun 07:01:14 AM 45.4333 -62.8167 63° Northeast 540 621 37,000  Level Moncton Center
Sun 07:02:14 AM 45.5000 -62.6333 67° East 540 621 37,000  Level Moncton Center
Sun 07:03:05 AM 45.5500 -62.4667 64° Northeast 550 633 37,000  Level Gander Center
Sun 07:04:05 AM 45.6167 -62.2667 64° Northeast 550 633 37,000  Level Gander Center
Sun 07:05:05 AM 45.6833 -62.0667 57° Northeast 550 633 37,000  Level Gander Center
Sun 07:06:05 AM 45.7667 -61.8833 66° East 550 633 37,000  Level Gander Center
Sun 07:07:05 AM 45.8333 -61.6667 67° East 550 633 37,000  Level Gander Center
Sun 07:08:05 AM 45.8833 -61.5000 61° Northeast 550 633 37,000  Level Gander Center
Sun 07:09:05 AM 45.9667 -61.2833 70° East 540 621 37,000  Level Gander Center
Sun 07:10:05 AM 46.0167 -61.0833 66° East 540 621 37,000  Level Gander Center
Sun 07:11:05 AM 46.0833 -60.8667 60° Northeast 540 621 37,000  Level Gander Center
Sun 07:12:05 AM 46.1500 -60.7000 68° East 540 621 37,000  Level Gander Center
Sun 07:13:05 AM 46.2000 -60.5167 66° East 540 621 37,000  Level Gander Center
Sun 07:14:05 AM 46.2667 -60.3000 64° Northeast 540 621 37,000  Level Gander Center
Sun 07:15:05 AM 46.3333 -60.1000 70° East 550 633 37,000  Level Gander Center
Sun 07:16:05 AM 46.3833 -59.9000 59° Northeast 550 633 37,000  Level Gander Center
Sun 07:17:05 AM 46.4667 -59.7000 68° East 550 633 37,000  Level Gander Center
Sun 07:18:05 AM 46.5167 -59.5167 67° East 550 633 37,000  Level Gander Center
Sun 07:19:05 AM 46.5833 -59.2833 68° East 550 633 37,000  Level Gander Center
Sun 07:20:05 AM 46.6333 -59.1000 67° East 550 633 37,000  Level Gander Center
Sun 07:21:05 AM 46.7000 -58.8667 64° Northeast 550 633 37,000  Level Gander Center
Sun 07:22:05 AM 46.7667 -58.6667 71° East 540 621 37,000  Level Gander Center
Sun 07:23:14 AM 46.8167 -58.4500 64° Northeast 530 610 37,000  Level Moncton Center
Sun 07:24:14 AM 46.8833 -58.2500 66° East 530 610 37,000  Level Moncton Center
Sun 07:25:05 AM 46.9333 -58.0833 64° Northeast 520 598 37,000  Level Gander Center
Sun 07:26:05 AM 47.0000 -57.8833 70° East 530 610 37,000  Level Gander Center
Sun 07:27:05 AM 47.0500 -57.6833 64° Northeast 530 610 37,000  Level Gander Center
Sun 07:28:05 AM 47.1167 -57.4833 70° East 530 610 37,000  Level Gander Center
Sun 07:29:05 AM 47.1667 -57.2833 70° East 530 610 37,000  Level Gander Center
Sun 07:30:05 AM 47.2167 -57.0833 66° East 530 610 37,000  Level Gander Center
Sun 07:31:05 AM 47.2833 -56.8667 70° East 530 610 37,000  Level Gander Center
Sun 07:32:05 AM 47.3333 -56.6667 64° Northeast 530 610 37,000  Level Gander Center
Sun 07:33:05 AM 47.4000 -56.4667 70° East 540 621 37,000  Level Gander Center
Sun 07:34:05 AM 47.4500 -56.2667 70° East 530 610 37,000  Level Gander Center
Sun 07:35:05 AM 47.5000 -56.0667 65° Northeast 540 621 37,000  Level Gander Center
Sun 07:36:05 AM 47.5667 -55.8500 70° East 530 610 37,000  Level Gander Center
Sun 07:37:05 AM 47.6167 -55.6500 64° Northeast 530 610 37,000  Level Gander Center
Sun 07:38:05 AM 47.6833 -55.4500 70° East 540 621 37,000  Level Gander Center
Sun 07:39:05 AM 47.7333 -55.2500 71° East 540 621 37,000  Level Gander Center
Sun 07:40:05 AM 47.7833 -55.0333 70° East 540 621 37,000  Level Gander Center
Sun 07:41:05 AM 47.8333 -54.8333 69° East 540 621 37,000  Level Gander Center
Sun 07:42:05 AM 47.8833 -54.6333 71° East 540 621 37,000  Level Gander Center
Sun 07:43:05 AM 47.9333 -54.4167 69° East 530 610 37,000  Level Gander Center
Sun 07:44:05 AM 47.9833 -54.2167 65° Northeast 530 610 37,000  Level Gander Center
Sun 07:45:05 AM 48.0500 -54.0000 69° East 540 621 37,000  Level Gander Center
Sun 07:46:05 AM 48.1000 -53.8000 71° East 540 621 37,000  Level Gander Center
Sun 07:47:05 AM 48.1500 -53.5833 69° East 540 621 37,000  Level Gander Center
Sun 07:48:05 AM 48.2000 -53.3833 71° East 540 621 37,000  Level Gander Center
Sun 07:49:05 AM 48.2500 -53.1667 71° East 540 621 37,000  Level Gander Center
Sun 07:50:05 AM 48.3000 -52.9500 63° Northeast 540 621 37,000  Level Gander Center
Sun 07:51:05 AM 48.3667 -52.7500 71° East 540 621 37,000  Level Gander Center
Sun 07:52:05 AM 48.4167 -52.5333 71° East 540 621 37,000  Level Gander Center
Sun 07:53:05 AM 48.4667 -52.3167 69° East 540 621 37,000  Level Gander Center
Sun 07:54:05 AM 48.5167 -52.1167 79° East 540 621 37,000  Level Gander Center
Sun 07:55:05 AM 48.5500 -51.8667 69° East 530 610 37,000  Level Gander Center
Sun 07:56:00 AM 49.0000 -50.0000 251° West 505 581 37,000  Level ETMS Enhanced
Sun 07:56:33 AM 48.6333 -51.5833 77° East 530 610 37,000  Level Gander Center
Sun 07:57:33 AM 48.6667 -51.3667 63° Northeast 520 598 37,000  Level Gander Center
Sun 07:58:05 AM 48.7000 -51.2667 76° East 520 598 37,000  Level Gander Center
Sun 07:59:05 AM 48.7333 -51.0667 72° East 520 598 37,000  Level Gander Center
Sun 08:00:05 AM 48.7833 -50.8333 67° East 520 598 37,000  Level Gander Center
Sun 08:01:05 AM 48.8333 -50.6500 71° East 520 598 37,000  Level Gander Center
Sun 08:02:05 AM 48.8833 -50.4333 71° East 520 598 37,000  Level Gander Center
Sun 08:03:05 AM 48.9333 -50.2167 65° Northeast 520 598 37,000  Level Gander Center
Sun 08:04:00 AM 49.0000 -50.0000 213° Southwest 505 581 37,000  Level ETMS Enhanced
Sun 08:04:05 AM 48.9833 -50.0167 71° East 520 598 37,000  Level Gander Center
Sun 08:05:05 AM 49.0333 -49.8000 61° Northeast 530 610 37,000  Level Gander Center
Sun 08:06:05 AM 49.1000 -49.6167 57° Northeast 540 621 37,000  Level Gander Center
Sun 08:07:05 AM 49.1833 -49.4167 63° Northeast 540 621 37,000  Level Gander Center
Sun 08:08:05 AM 49.2500 -49.2167 57° Northeast 540 621 37,000  Level Gander Center
Sun 08:09:05 AM 49.3333 -49.0167 72° East 540 621 37,000  Level Gander Center
Sun 08:10:05 AM 49.3833 -48.7833 52° Northeast 540 621 37,000  Level Gander Center
Sun 08:11:05 AM 49.4667 -48.6167 61° Northeast 540 621 37,000  Level Gander Center
Sun 08:12:05 AM 49.5500 -48.3833 69° East 550 633 37,000  Level Gander Center
Sun 08:13:05 AM 49.6000 -48.1833 64° Northeast 550 633 37,000  Level Gander Center
Sun 08:14:33 AM 49.7000 -47.8667 57° Northeast 550 633 37,000  Level Gander Center
Sun 08:15:33 AM 49.7833 -47.6667 77° East 540 621 37,000  Level Gander Center
Sun 08:16:05 AM 49.8000 -47.5500 55° Northeast 550 633 37,000  Level Gander Center
Sun 08:17:05 AM 49.8833 -47.3667 63° Northeast 540 621 37,000  Level Gander Center
Sun 08:53:00 AM 52.0000 -40.0000 95° East 462 532 37,000  Level ETMS Enhanced
Sun 09:42:00 AM 51.0000 -30.0000 95° East 445 512 37,000  Level ETMS Enhanced
Sun 09:42:15 AM 50.9724 -29.5232 95° East  Level FlightAware
Sun 09:49:15 AM 50.8990 -28.3877 96° East 445 512 37,000  Level FlightAware
Sun 09:50:15 AM 50.8853 -28.1928 96° East 445 512 37,000  Level FlightAware
Sun 09:51:15 AM 50.8712 -27.9980 97° East 445 512 37,000  Level FlightAware
Sun 09:52:15 AM 50.8568 -27.8033 97° East 445 512 37,000  Level FlightAware
Sun 09:53:15 AM 50.8421 -27.6087 97° East 445 512 37,000  Level FlightAware
Sun 09:54:15 AM 50.8271 -27.4142 97° East 445 512 37,000  Level FlightAware
Sun 09:55:15 AM 50.8117 -27.2199 97° East 445 512 37,000  Level FlightAware
Sun 09:56:15 AM 50.7960 -27.0257 97° East 445 512 37,000  Level FlightAware
Sun 09:57:15 AM 50.7800 -26.8316 98° East 445 512 37,000  Level FlightAware
Sun 09:58:15 AM 50.7637 -26.6377 98° East 445 512 37,000  Level FlightAware
Sun 09:59:15 AM 50.7471 -26.4439 98° East 445 512 37,000  Level FlightAware
Sun 10:00:15 AM 50.7301 -26.2503 98° East 445 512 37,000  Level FlightAware
Sun 10:01:15 AM 50.7128 -26.0568 98° East 445 512 37,000  Level FlightAware
Sun 10:02:15 AM 50.6952 -25.8634 98° East 445 512 37,000  Level FlightAware
Sun 10:03:15 AM 50.6772 -25.6702 98° East 445 512 37,000  Level FlightAware
Sun 10:04:15 AM 50.6590 -25.4771 99° East 445 512 37,000  Level FlightAware
Sun 10:05:15 AM 50.6404 -25.2842 99° East 445 512 37,000  Level FlightAware
Sun 10:06:15 AM 50.6215 -25.0914 99° East 445 512 37,000  Level FlightAware
Sun 10:07:15 AM 50.6023 -24.8988 99° East 445 512 37,000  Level FlightAware
Sun 10:08:15 AM 50.5828 -24.7063 99° East 445 512 37,000  Level FlightAware
Sun 10:09:15 AM 50.5630 -24.5140 99° East 445 512 37,000  Level FlightAware
Sun 10:10:15 AM 50.5428 -24.3219 99° East 445 512 37,000  Level FlightAware
Sun 10:11:15 AM 50.5223 -24.1299 100° East 445 512 37,000  Level FlightAware
Sun 10:12:15 AM 50.5016 -23.9382 100° East 445 512 37,000  Level FlightAware
Sun 10:13:15 AM 50.4805 -23.7465 100° East 445 512 37,000  Level FlightAware
Sun 10:14:15 AM 50.4590 -23.5551 100° East 445 512 37,000  Level FlightAware
Sun 10:15:15 AM 50.4373 -23.3638 100° East 445 512 37,000  Level FlightAware
Sun 10:16:15 AM 50.4153 -23.1727 100° East 445 512 37,000  Level FlightAware
Sun 10:17:15 AM 50.3929 -22.9818 100° East 445 512 37,000  Level FlightAware
Sun 10:18:15 AM 50.3702 -22.7910 101° East 445 512 37,000  Level FlightAware
Sun 10:19:15 AM 50.3473 -22.6005 101° East 445 512 37,000  Level FlightAware
Sun 10:20:15 AM 50.3240 -22.4101 101° East 445 512 37,000  Level FlightAware
Sun 10:21:15 AM 50.3004 -22.2199 101° East 445 512 37,000  Level FlightAware
Sun 10:22:15 AM 50.2765 -22.0299 101° East 445 512 37,000  Level FlightAware
Sun 10:23:15 AM 50.2522 -21.8401 101° East 445 512 37,000  Level FlightAware
Sun 10:24:15 AM 50.2277 -21.6505 102° East 445 512 37,000  Level FlightAware
Sun 10:25:15 AM 50.2029 -21.4611 102° East 445 512 37,000  Level FlightAware
Sun 10:26:15 AM 50.1777 -21.2719 102° East 445 512 37,000  Level FlightAware
Sun 10:27:15 AM 50.1523 -21.0828 102° East 445 512 37,000  Level FlightAware
Sun 10:28:15 AM 50.1265 -20.8940 102° East 445 512 37,000  Level FlightAware
Sun 10:29:15 AM 50.1004 -20.7054 102° East 445 512 37,000  Level FlightAware
Sun 10:30:15 AM 50.0741 -20.5170 102° East 445 512 37,000  Level FlightAware
Sun 10:31:15 AM 50.0474 -20.3288 103° East 445 512 37,000  Level FlightAware
Sun 10:32:15 AM 50.0204 -20.1409 77° East 445 512 37,000 -93 Level FlightAware
Sun 10:33:15 AM 50.0094 -19.9398 77° East  Level FlightAware
Sun 10:34:15 AM 50.0405 -19.7392 77° East  Level FlightAware
Sun 10:35:15 AM 50.0712 -19.5382 77° East  Level FlightAware
Sun 10:36:15 AM 50.1015 -19.3371 78° East  Level FlightAware
Sun 10:37:15 AM 50.1315 -19.1356 78° East  Level FlightAware
Sun 10:38:15 AM 50.1612 -18.9340 78° East  Level FlightAware
Sun 10:39:15 AM 50.1905 -18.7320 78° East  Level FlightAware
Sun 10:40:15 AM 50.2195 -18.5299 78° East  Level FlightAware
Sun 10:41:15 AM 50.2481 -18.3274 78° East  Level FlightAware
Sun 10:42:15 AM 50.2764 -18.1248 79° East  Level FlightAware
Sun 10:43:15 AM 50.3043 -17.9219 79° East  Level FlightAware
Sun 10:44:15 AM 50.3318 -17.7187 79° East  Level FlightAware
Sun 10:45:15 AM 50.3591 -17.5154 79° East  Level FlightAware
Sun 10:46:15 AM 50.3859 -17.3118 79° East  Level FlightAware
Sun 10:47:15 AM 50.4124 -17.1079 79° East  Level FlightAware
Sun 10:48:15 AM 50.4385 -16.9039 80° East  Level FlightAware
Sun 10:49:15 AM 50.4643 -16.6996 80° East  Level FlightAware
Sun 10:50:15 AM 50.4897 -16.4951 80° East  Level FlightAware
Sun 10:51:15 AM 50.5148 -16.2904 80° East  Level FlightAware
Sun 10:52:15 AM 50.5395 -16.0854 80° East  Level FlightAware
Sun 10:53:15 AM 50.5638 -15.8803 80° East  Level FlightAware
Sun 10:54:15 AM 50.5878 -15.6749 81° East  Level FlightAware
Sun 10:55:15 AM 50.6114 -15.4694 81° East  Level FlightAware
Sun 10:56:15 AM 50.6347 -15.2636 81° East  Level FlightAware
Sun 10:57:15 AM 50.6576 -15.0576 81° East  Level FlightAware
Sun 10:58:15 AM 50.6829 -14.8524 81° East  Level FlightAware
Sun 10:59:15 AM 50.7050 -14.6459 81° East  Level FlightAware
Sun 11:00:15 AM 50.7267 -14.4393 82° East  Level FlightAware
Sun 11:01:15 AM 50.7480 -14.2325 82° East  Level FlightAware
Sun 11:02:15 AM 50.7690 -14.0255 82° East  Level FlightAware
Sun 11:03:15 AM 50.7896 -13.8184 82° East  Level FlightAware
Sun 11:04:15 AM 50.8098 -13.6110 82° East  Level FlightAware
Sun 11:05:15 AM 50.8296 -13.4035 83° East  Level FlightAware
Sun 11:06:15 AM 50.8491 -13.1958 83° East  Level FlightAware
Sun 11:07:15 AM 50.8683 -12.9879 83° East  Level FlightAware
Sun 11:08:15 AM 50.8870 -12.7799 83° East  Level FlightAware
Sun 11:09:15 AM 50.9054 -12.5717 83° East  Level FlightAware
Sun 11:10:15 AM 50.9234 -12.3633 83° East  Level FlightAware
Sun 11:11:15 AM 50.9410 -12.1548 84° East  Level FlightAware
Sun 11:12:15 AM 50.9583 -11.9461 84° East  Level FlightAware
Sun 11:13:15 AM 50.9752 -11.7373 84° East  Level FlightAware
Sun 11:14:15 AM 50.9917 -11.5283 84° East  Level FlightAware
Sun 11:15:15 AM 51.0079 -11.3191 84° East  Level FlightAware
Sun 11:16:15 AM 51.0236 -11.1098 84° East  Level FlightAware
Sun 11:17:15 AM 51.0390 -10.9004 85° East  Level FlightAware
Sun 11:18:15 AM 51.0608 -10.6933 85° East  Level FlightAware
Sun 11:19:15 AM 51.0741 -10.4834 85° East  Level FlightAware
Sun 11:20:15 AM 51.0871 -10.2733 85° East  Level FlightAware
Sun 11:21:15 AM 51.0997 -10.0632 85° East  Level FlightAware
Sun 11:22:15 AM 51.1119 -9.8529 86° East  Level FlightAware
Sun 11:23:15 AM 51.1237 -9.6425 86° East  Level FlightAware
Sun 11:24:15 AM 51.1352 -9.4320 86° East  Level FlightAware
Sun 11:25:15 AM 51.1463 -9.2213 86° East  Level FlightAware
Sun 11:26:15 AM 51.1570 -9.0106 86° East  Level FlightAware
Sun 11:27:15 AM 51.1673 -8.7998 87° East  Level FlightAware
Sun 11:28:15 AM 51.1772 -8.5889 87° East  Level FlightAware
Sun 11:29:15 AM 51.1868 -8.3779 87° East  Level FlightAware
Sun 11:30:15 AM 51.2055 -8.1690 87° East  Level FlightAware
Sun 11:31:15 AM 51.2140 -7.9577 87° East  Level FlightAware
Sun 11:32:15 AM 51.2220 -7.7464 88° East  Level FlightAware
Sun 11:33:15 AM 51.2340 -7.5356 88° East  Level FlightAware
Sun 11:34:15 AM 51.2402 -7.3240 88° East  Level FlightAware
Sun 11:35:15 AM 51.2460 -7.1124 88° East  Level FlightAware
Sun 11:36:15 AM 51.2514 -6.9007 88° East  Level FlightAware
Sun 11:37:15 AM 51.2565 -6.6890 88° East  Level FlightAware
Sun 11:38:15 AM 51.2612 -6.4772 89° East  Level FlightAware
Sun 11:39:15 AM 51.2655 -6.2654 89° East  Level FlightAware
Sun 11:40:15 AM 51.2694 -6.0536 89° East  Level FlightAware
Sun 11:41:15 AM 51.2729 -5.8417 89° East  Level FlightAware
Sun 11:42:15 AM 51.2761 -5.6298 89° East  Level FlightAware
Sun 11:43:15 AM 51.2788 -5.4179 90° East  Level FlightAware
Sun 11:44:15 AM 51.2812 -5.2059 90° East  Level FlightAware
Sun 11:45:15 AM 51.2832 -4.9939 90° East  Level FlightAware
Sun 11:46:15 AM 51.2846 -4.7819 90° East  Level FlightAware
Sun 11:47:15 AM 51.2855 -4.5699 90° East  Level FlightAware
Sun 11:48:15 AM 51.2862 -4.3579 91° East  Level FlightAware
Sun 11:49:15 AM 51.2864 -4.1459 91° East  Level FlightAware
Sun 11:50:15 AM 51.2862 -3.9339 91° East  Level FlightAware
Sun 11:51:15 AM 51.2858 -3.7219 91° East  Level FlightAware
Sun 11:52:15 AM 51.2849 -3.5099 91° East  Level FlightAware
Sun 11:53:15 AM 51.2837 -3.2978 92° East  Level FlightAware
Sun 11:54:15 AM 51.2821 -3.0859 92° East  Level FlightAware
Sun 11:55:15 AM 51.2802 -2.8739 92° East  Level FlightAware
Sun 11:56:15 AM 51.2778 -2.6619 92° East  Level FlightAware
Sun 11:57:15 AM 51.2981 -2.4542 93° East  Level FlightAware
Sun 11:58:15 AM 51.2936 -2.2423 93° East  Level FlightAware
Sun 11:59:15 AM 51.2888 -2.0304 93° East  Level FlightAware
Sun 12:00:15 PM 51.2791 -1.8197 94° East  Level FlightAware
Sun 12:01:15 PM 51.2723 -1.6081 94° East  Level FlightAware
Sun 12:02:15 PM 51.2652 -1.3964 94° East  Level FlightAware
Sun 12:03:15 PM 51.2576 -1.1849 94° East  Level FlightAware
Sun 12:04:15 PM 51.2497 -0.9734 94° East  Level FlightAware
Sun 12:05:15 PM 51.2484 -0.7616 95° East  Level FlightAware
Sun 12:06:15 PM 51.2387 -0.5504 95° East  Level FlightAware
Sun 12:07:15 PM 51.2309 -0.3390 96° East  Level FlightAware
Sun 12:08:15 PM 51.2201 -0.1279 96° East  Level FlightAware
Sun 12:09:15 PM 51.2166 0.0837 97° East  Level FlightAware
Sun 12:10:15 PM 51.2047 0.2945 98° East  Level FlightAware
Sun 12:11:15 PM 51.1925 0.5052 98° East  Level FlightAware
Sun 12:12:15 PM 51.1798 0.7158 99° East  Level FlightAware
Sun 12:13:15 PM 51.1833 0.9271 106° East  Level FlightAware
Sun 12:14:15 PM 51.1609 1.1341 112° Southeast  Level FlightAware
Sun 12:15:15 PM 51.1466 1.3443 216° Southwest  Level FlightAware
Sun 12:16:15 PM 51.1500 1.5535 258° West  Level FlightAware
Sun 12:17:15 PM 51.1284 1.7611 268° West  Level FlightAware
Sun 12:18:15 PM 51.1121 1.9707 271° West  Level FlightAware
Sun 12:19:15 PM 51.1128 2.1799 271° West  Level FlightAware
Sun 12:20:15 PM 51.0941 2.3890 272° West  Level FlightAware
Sun 12:21:15 PM 51.0908 2.5982 272° West  Level FlightAware
Sun 12:27:02 PM 51.1160 1.3092 91° East 380 437 26,200  Level FlightAware
Sun 12:27:29 PM 51.1151 1.3901 94° East 379 436 25,700 -1,091 Descending FlightAware
Sun 12:27:35 PM 51.1145 1.4043 95° East 378 435 25,600 -1,622 Descending FlightAware
Sun 12:28:06 PM 51.1102 1.4853 95° East 364 419 24,700 -2,262 Descending FlightAware
Sun 12:28:36 PM 51.1057 1.5676 95° East 362 417 23,300 -2,656 Descending FlightAware
Sun 12:29:07 PM 51.1012 1.6495 93° East 361 415 22,000 -2,516 Descending FlightAware
Sun 12:36:15 PM 51.0396 3.1476 100° East  Level FlightAware
Sun 12:37:15 PM 51.0161 3.3550 100° East  Level FlightAware
Sun 12:38:15 PM 50.9922 3.5622 100° East  Level FlightAware
Sun 12:39:15 PM 50.9685 3.7695 99° East  Level FlightAware
Sun 12:40:15 PM 50.9467 3.9768 101° East  Level FlightAware
Sun 12:41:15 PM 50.9209 4.1832 99° East  Level FlightAware
Sun 12:42:15 PM 50.9000 4.3902 89° East  Level FlightAware
Sun 12:43:15 PM 50.9030 4.6004 268° West  Level Estimated
Sun 12:44:15 PM 50.9000 4.4833 27° Northeast  Level FlightAware
Sun 12:45:15 PM 51.0183 4.5786 207° Southwest  Level Estimated
Sun 12:46:15 PM 50.9000 4.4833 27° Northeast  Level FlightAware
Sun 12:47:15 PM 51.0183 4.5786 207° Southwest  Level Estimated
Sun 12:48:15 PM 50.9000 4.4833 27° Northeast  Level FlightAware
Sun 12:49:15 PM 51.0183 4.5786 207° Southwest  Level Estimated
Sun 12:50:15 PM 50.9000 4.4833 27° Northeast  Level FlightAware
Sun 12:51:15 PM 51.0183 4.5786 207° Southwest  Level Estimated
Sun 12:52:15 PM 50.9000 4.4833 27° Northeast  Level FlightAware
Sun 12:53:15 PM 51.0183 4.5786 207° Southwest  Level Estimated
Sun 12:54:15 PM 50.9000 4.4833 27° Northeast  Level FlightAware
Sun 12:55:15 PM 51.0183 4.5786 207° Southwest  Level Estimated
Sun 12:56:15 PM 50.9000 4.4833 27° Northeast  Level FlightAware
Sun 12:57:15 PM 51.0183 4.5786 207° Southwest  Level Estimated
Sun 12:58:15 PM 50.9000 4.4833 207° Southwest  Level FlightAware

Login

Don't have an account? Register now (free) for customized features, flight alerts, and more!